createdAt,value
2023-10-08T00:00:25.136Z,15.852174
2023-10-08T00:05:49.060Z,15.913043
2023-10-08T00:10:25.246Z,15.957895
2023-10-08T00:15:24.963Z,15.918182
2023-10-08T00:20:25.193Z,15.847826
2023-10-08T00:25:25.211Z,15.785000
2023-10-08T00:30:25.159Z,15.475000
2023-10-08T00:35:24.972Z,15.395000
2023-10-08T00:40:24.968Z,15.195238
2023-10-08T00:45:25.038Z,15.085714
2023-10-08T00:51:01.011Z,15.162500
2023-10-08T00:55:25.159Z,15.190476
2023-10-08T01:00:24.906Z,15.150000
2023-10-08T01:05:37.036Z,15.054167
2023-10-08T01:10:24.939Z,15.168421
2023-10-08T01:15:37.482Z,15.061905
2023-10-08T01:20:25.047Z,14.988889
2023-10-08T01:25:25.114Z,15.155556
2023-10-08T01:30:24.902Z,15.263636
2023-10-08T01:35:25.098Z,15.521053
2023-10-08T01:40:37.014Z,15.813636
2023-10-08T01:45:25.025Z,15.805000
2023-10-08T01:50:25.028Z,15.809524
2023-10-08T01:55:25.085Z,15.928571
2023-10-08T02:00:24.957Z,16.277778
2023-10-08T02:05:24.978Z,16.154545
2023-10-08T02:10:24.966Z,16.015789
2023-10-08T02:15:24.971Z,15.738889
2023-10-08T02:20:25.087Z,15.691304
2023-10-08T02:25:25.050Z,15.900000
2023-10-08T02:30:24.895Z,15.980952
2023-10-08T02:35:24.997Z,16.060000
2023-10-08T02:40:25.009Z,15.786364
2023-10-08T02:45:25.145Z,15.509091
2023-10-08T02:50:48.986Z,15.577273
2023-10-08T02:55:25.337Z,15.600000
2023-10-08T03:00:24.996Z,15.530000
2023-10-08T03:05:25.034Z,15.620000
2023-10-08T03:10:25.032Z,15.600000
2023-10-08T03:15:25.291Z,15.692000
2023-10-08T03:20:25.027Z,15.654167
2023-10-08T03:25:25.157Z,15.733333
2023-10-08T03:30:24.948Z,15.800000
2023-10-08T03:35:37.178Z,15.872222
2023-10-08T03:40:24.980Z,15.827273
2023-10-08T03:45:37.004Z,15.880000
2023-10-08T03:50:25.168Z,16.075000
2023-10-08T03:55:24.938Z,16.138889
2023-10-08T04:00:36.966Z,16.123529
2023-10-08T04:05:37.084Z,16.030000
2023-10-08T04:10:36.983Z,16.063158
2023-10-08T04:15:36.912Z,16.065000
2023-10-08T04:20:24.982Z,16.057143
2023-10-08T04:25:24.952Z,16.010526
2023-10-08T04:30:24.922Z,15.936364
2023-10-08T04:35:25.063Z,16.104545
2023-10-08T04:40:24.981Z,16.177778
2023-10-08T04:45:36.904Z,16.295000
2023-10-08T04:50:24.941Z,16.370588
2023-10-08T04:55:24.968Z,16.510526
2023-10-08T05:00:24.927Z,16.660870
2023-10-08T05:05:25.076Z,16.908696
2023-10-08T05:10:36.856Z,17.030435
2023-10-08T05:15:25.198Z,17.100000
2023-10-08T05:20:36.953Z,17.211765
2023-10-08T05:25:24.882Z,17.405556
2023-10-08T05:30:24.953Z,17.604348
2023-10-08T05:35:25.055Z,17.740909
2023-10-08T05:40:25.016Z,17.705556
2023-10-08T05:45:24.851Z,17.800000
2023-10-08T05:50:24.914Z,17.876000
2023-10-08T05:55:49.086Z,18.147059
2023-10-08T06:00:24.973Z,18.477273
2023-10-08T06:05:25.046Z,18.447619
2023-10-08T06:10:25.159Z,18.428571
2023-10-08T06:15:36.927Z,18.625000
2023-10-08T06:20:24.907Z,18.957143
2023-10-08T06:25:25.023Z,19.360870
2023-10-08T06:30:25.118Z,19.637500
2023-10-08T06:35:25.046Z,19.935294
2023-10-08T06:40:36.976Z,20.080000
2023-10-08T06:45:36.922Z,20.135714
2023-10-08T06:50:24.995Z,20.437500
2023-10-08T06:55:24.929Z,20.700000
2023-10-08T07:00:24.949Z,20.826316
2023-10-08T07:05:25.063Z,20.685000
2023-10-08T07:10:25.136Z,21.010526
2023-10-08T07:15:24.946Z,21.014286
2023-10-08T07:20:25.018Z,21.300000
2023-10-08T07:25:25.045Z,21.395238
2023-10-08T07:30:24.990Z,21.547826
2023-10-08T07:35:24.848Z,21.715000
2023-10-08T07:40:25.028Z,21.752632
2023-10-08T07:45:24.895Z,21.939130
2023-10-08T07:50:24.978Z,22.433333
2023-10-08T07:55:24.922Z,22.366667
2023-10-08T08:00:38.764Z,22.690909
2023-10-08T08:05:24.934Z,22.839130
2023-10-08T08:10:25.072Z,23.019048
2023-10-08T08:15:25.127Z,23.395833
2023-10-08T08:20:24.939Z,23.611765
2023-10-08T08:25:24.955Z,23.852632
2023-10-08T08:30:24.800Z,24.012000
2023-10-08T08:35:24.900Z,24.154545
2023-10-08T08:40:25.135Z,24.631579
2023-10-08T08:45:24.925Z,24.633333
2023-10-08T08:50:24.998Z,25.118750
2023-10-08T08:55:25.244Z,25.040000
2023-10-08T09:00:24.851Z,24.645000
2023-10-08T09:05:24.995Z,24.522222
2023-10-08T09:10:24.908Z,24.813043
2023-10-08T09:15:24.937Z,24.736364
2023-10-08T09:20:25.156Z,24.723810
2023-10-08T09:25:24.937Z,25.185714
2023-10-08T09:30:24.965Z,25.200000
2023-10-08T09:35:25.074Z,25.338889
2023-10-08T09:40:37.101Z,25.640000
2023-10-08T09:45:37.038Z,25.933333
2023-10-08T09:50:24.960Z,26.114286
2023-10-08T09:55:24.825Z,25.726316
2023-10-08T10:00:36.914Z,26.063636
2023-10-08T10:05:24.913Z,26.038095
2023-10-08T10:10:24.942Z,25.863636
2023-10-08T10:15:35.984Z,26.120000
2023-10-08T10:20:24.917Z,26.108696
2023-10-08T10:25:24.857Z,26.547368
2023-10-08T10:30:25.224Z,26.650000
2023-10-08T10:35:25.069Z,26.678947
2023-10-08T10:40:36.943Z,26.800000
2023-10-08T10:45:24.929Z,26.984211
2023-10-08T10:50:24.933Z,27.040000
2023-10-08T10:55:24.860Z,27.100000
2023-10-08T11:00:24.846Z,27.204762
2023-10-08T11:05:24.934Z,27.005000
2023-10-08T11:10:24.888Z,27.084211
2023-10-08T11:15:25.180Z,27.285000
2023-10-08T11:20:24.820Z,27.066667
2023-10-08T11:25:24.904Z,27.291667
2023-10-08T11:30:24.815Z,27.070000
2023-10-08T11:35:24.908Z,27.190909
2023-10-08T11:40:24.880Z,27.455000
2023-10-08T11:45:36.886Z,27.680000
2023-10-08T11:50:24.877Z,27.447619
2023-10-08T11:55:37.416Z,26.966667
2023-10-08T12:00:36.961Z,26.763636
2023-10-08T12:05:25.161Z,26.800000
2023-10-08T12:10:24.893Z,27.031579
2023-10-08T12:15:25.247Z,27.278947
2023-10-08T12:20:25.006Z,27.352632
2023-10-08T12:25:24.865Z,27.130000
2023-10-08T12:30:36.983Z,27.130000
2023-10-08T12:35:24.882Z,27.295238
2023-10-08T12:40:25.097Z,27.642857
2023-10-08T12:45:37.048Z,27.560000
2023-10-08T12:50:24.910Z,27.522727
2023-10-08T12:55:24.920Z,27.395652
2023-10-08T13:00:24.923Z,27.209091
2023-10-08T13:05:24.907Z,27.365000
2023-10-08T13:10:25.082Z,27.430000
2023-10-08T13:15:24.907Z,27.573913
2023-10-08T13:20:24.804Z,27.205556
2023-10-08T13:25:24.875Z,27.173684
2023-10-08T13:30:24.955Z,27.161905
2023-10-08T13:35:36.878Z,26.933333
2023-10-08T13:40:36.873Z,26.840000
2023-10-08T13:45:24.799Z,26.909091
2023-10-08T13:50:24.880Z,26.863158
2023-10-08T13:55:37.191Z,26.790476
2023-10-08T14:00:24.877Z,26.819048
2023-10-08T14:05:24.847Z,26.721739
2023-10-08T14:10:24.733Z,26.960870
2023-10-08T14:15:24.852Z,26.623810
2023-10-08T14:20:24.785Z,26.620000
2023-10-08T14:25:24.838Z,26.716667
2023-10-08T14:30:25.092Z,26.513636
2023-10-08T14:35:24.862Z,26.469565
2023-10-08T14:40:24.793Z,26.255000
2023-10-08T14:45:24.754Z,25.980952
2023-10-08T14:50:36.997Z,25.771429
2023-10-08T14:55:24.927Z,25.675000
2023-10-08T15:00:24.829Z,25.605000
2023-10-08T15:05:24.885Z,25.465217
2023-10-08T15:10:24.918Z,25.329167
2023-10-08T15:15:24.950Z,25.181818
2023-10-08T15:20:25.197Z,25.111765
2023-10-08T15:25:24.862Z,24.935000
2023-10-08T15:30:24.971Z,24.841176
2023-10-08T15:35:24.825Z,25.078261
2023-10-08T15:40:36.979Z,25.227778
2023-10-08T15:45:24.997Z,24.919048
2023-10-08T15:50:36.986Z,24.857895
2023-10-08T15:55:36.824Z,23.254545
2023-10-08T16:00:25.140Z,19.820000
2023-10-08T16:05:24.776Z,18.527273
2023-10-08T16:10:24.935Z,17.619048
2023-10-08T16:15:24.871Z,17.185714
2023-10-08T16:20:24.862Z,16.773684
2023-10-08T16:25:24.911Z,16.504762
2023-10-08T16:30:25.294Z,16.286364
2023-10-08T16:35:24.711Z,15.990000
2023-10-08T16:40:24.921Z,15.663636
2023-10-08T16:45:24.942Z,15.447619
2023-10-08T16:50:24.850Z,15.027273
2023-10-08T16:55:24.899Z,14.768182
2023-10-08T17:00:36.794Z,14.705882
2023-10-08T17:05:24.810Z,14.578571
2023-10-08T17:10:48.993Z,14.361111
2023-10-08T17:15:24.836Z,14.330000
2023-10-08T17:20:24.856Z,14.236842
2023-10-08T17:25:24.953Z,14.272727
2023-10-08T17:30:24.777Z,14.326316
2023-10-08T17:35:24.791Z,14.305263
2023-10-08T17:40:24.784Z,14.286364
2023-10-08T17:45:24.845Z,14.275000
2023-10-08T17:50:24.841Z,14.261905
2023-10-08T17:55:24.711Z,14.190476
2023-10-08T18:00:26.121Z,14.085000
2023-10-08T18:05:24.840Z,14.082609
2023-10-08T18:10:24.961Z,14.095652
2023-10-08T18:15:24.992Z,14.056522
2023-10-08T18:20:24.854Z,14.038095
2023-10-08T18:25:36.886Z,14.014286
2023-10-08T18:30:24.859Z,13.850000
2023-10-08T18:35:24.736Z,13.736842
2023-10-08T18:40:24.804Z,13.669565
2023-10-08T18:45:36.899Z,13.552632
2023-10-08T18:50:24.847Z,13.400000
2023-10-08T18:55:28.700Z,13.277273
2023-10-08T19:00:24.772Z,13.175000
2023-10-08T19:05:25.113Z,13.156522
2023-10-08T19:10:24.834Z,13.113043
2023-10-08T19:15:24.886Z,12.910526
2023-10-08T19:20:24.888Z,12.786364
2023-10-08T19:25:24.770Z,12.663636
2023-10-08T19:30:24.882Z,12.563158
2023-10-08T19:35:36.845Z,12.441667
2023-10-08T19:40:24.831Z,12.320000
2023-10-08T19:45:24.917Z,12.155000
2023-10-08T19:50:24.772Z,12.013043
2023-10-08T19:55:24.809Z,11.876190
2023-10-08T20:00:24.806Z,11.785000
2023-10-08T20:05:24.902Z,11.680952
2023-10-08T20:10:24.771Z,11.622727
2023-10-08T20:15:24.980Z,11.545455
2023-10-08T20:20:24.698Z,11.470833
2023-10-08T20:25:25.032Z,11.357143
2023-10-08T20:30:36.886Z,11.331818
2023-10-08T20:35:24.792Z,11.310000
2023-10-08T20:40:36.913Z,11.108696
2023-10-08T20:45:24.878Z,10.995000
2023-10-08T20:50:36.747Z,10.916667
2023-10-08T20:55:24.713Z,10.713636
2023-10-08T21:00:24.835Z,10.590476
2023-10-08T21:05:24.967Z,10.540909
2023-10-08T21:10:24.790Z,10.477273
2023-10-08T21:15:36.774Z,10.442857
2023-10-08T21:20:25.010Z,10.420000
2023-10-08T21:25:24.816Z,10.418182
2023-10-08T21:30:37.126Z,10.384211
2023-10-08T21:35:24.816Z,10.441667
2023-10-08T21:40:24.781Z,10.429167
2023-10-08T21:45:36.990Z,10.400000
2023-10-08T21:50:24.955Z,10.288889
2023-10-08T21:55:36.861Z,10.247619
2023-10-08T22:00:36.813Z,10.265000
2023-10-08T22:05:24.835Z,10.275000
2023-10-08T22:10:36.794Z,10.204545
2023-10-08T22:15:24.935Z,10.210000
2023-10-08T22:20:24.762Z,10.220000
2023-10-08T22:25:24.832Z,10.215789
2023-10-08T22:30:24.828Z,10.152381
2023-10-08T22:35:24.791Z,10.179167
2023-10-08T22:40:24.890Z,10.155000
2023-10-08T22:45:24.827Z,10.190909
2023-10-08T22:50:24.811Z,10.214286
2023-10-08T22:55:24.826Z,10.195455
2023-10-08T23:00:24.913Z,10.100000
2023-10-08T23:05:24.805Z,9.991304
2023-10-08T23:10:36.766Z,9.985714
2023-10-08T23:15:36.899Z,10.055556
2023-10-08T23:20:24.800Z,10.078947
2023-10-08T23:25:24.795Z,10.143478
2023-10-08T23:30:24.968Z,10.233333
2023-10-08T23:35:24.786Z,10.209524
2023-10-08T23:40:24.891Z,10.185000
2023-10-08T23:45:24.927Z,10.216667
2023-10-08T23:50:24.752Z,10.200000
2023-10-08T23:55:25.114Z,10.210000
